sensor_id;sensor_type;location;lat;lon;timestamp;pressure;altitude;pressure_sealevel;temperature;humidity
69796;BME280;57073;45.650;9.612;2024-02-15T00:04:44;100085.06;;;7.69;58.30
69796;BME280;57073;45.650;9.612;2024-02-15T00:09:45;100078.00;;;7.62;58.40
69796;BME280;57073;45.650;9.612;2024-02-15T00:14:45;100067.44;;;7.25;60.13
69796;BME280;57073;45.650;9.612;2024-02-15T00:19:46;100072.38;;;7.22;59.89
69796;BME280;57073;45.650;9.612;2024-02-15T00:24:47;100072.22;;;7.02;59.96
69796;BME280;57073;45.650;9.612;2024-02-15T00:29:48;100067.03;;;7.00;60.08
69796;BME280;57073;45.650;9.612;2024-02-15T00:34:49;100065.63;;;7.04;59.72
69796;BME280;57073;45.650;9.612;2024-02-15T00:39:49;100064.81;;;7.04;59.87
69796;BME280;57073;45.650;9.612;2024-02-15T00:44:49;100056.38;;;7.07;60.05
69796;BME280;57073;45.650;9.612;2024-02-15T00:49:50;100065.00;;;7.02;59.20
69796;BME280;57073;45.650;9.612;2024-02-15T00:54:50;100066.78;;;6.95;59.87
69796;BME280;57073;45.650;9.612;2024-02-15T00:59:51;100059.72;;;6.87;60.04
69796;BME280;57073;45.650;9.612;2024-02-15T01:04:52;100055.47;;;6.71;60.16
69796;BME280;57073;45.650;9.612;2024-02-15T01:09:54;100061.53;;;6.58;60.50
69796;BME280;57073;45.650;9.612;2024-02-15T01:14:54;100059.19;;;6.49;60.76
69796;BME280;57073;45.650;9.612;2024-02-15T01:19:56;100053.75;;;6.42;60.22
69796;BME280;57073;45.650;9.612;2024-02-15T01:24:56;100049.22;;;6.43;60.35
69796;BME280;57073;45.650;9.612;2024-02-15T01:29:58;100046.84;;;6.33;60.57
69796;BME280;57073;45.650;9.612;2024-02-15T01:34:58;100035.38;;;6.39;59.69
69796;BME280;57073;45.650;9.612;2024-02-15T01:39:58;100042.22;;;6.42;59.90
69796;BME280;57073;45.650;9.612;2024-02-15T01:44:59;100038.75;;;6.48;59.79
69796;BME280;57073;45.650;9.612;2024-02-15T01:50:00;100036.47;;;6.45;59.77
69796;BME280;57073;45.650;9.612;2024-02-15T01:55:02;100027.28;;;6.54;59.14
69796;BME280;57073;45.650;9.612;2024-02-15T02:00:07;100028.47;;;6.30;59.49
69796;BME280;57073;45.650;9.612;2024-02-15T02:05:09;100031.03;;;6.16;59.70
69796;BME280;57073;45.650;9.612;2024-02-15T02:10:09;100029.22;;;6.02;60.38
69796;BME280;57073;45.650;9.612;2024-02-15T02:15:11;100019.28;;;5.96;60.31
69796;BME280;57073;45.650;9.612;2024-02-15T02:20:11;100019.56;;;5.86;60.34
69796;BME280;57073;45.650;9.612;2024-02-15T02:25:13;100016.56;;;5.74;60.90
69796;BME280;57073;45.650;9.612;2024-02-15T02:30:16;100018.44;;;5.95;60.03
69796;BME280;57073;45.650;9.612;2024-02-15T02:35:19;100018.44;;;5.95;60.90
69796;BME280;57073;45.650;9.612;2024-02-15T02:40:20;100008.53;;;6.11;60.75
69796;BME280;57073;45.650;9.612;2024-02-15T02:45:22;100004.97;;;6.25;60.61
69796;BME280;57073;45.650;9.612;2024-02-15T02:50:23;100003.88;;;6.19;61.05
69796;BME280;57073;45.650;9.612;2024-02-15T02:55:23;100011.41;;;6.31;60.19
69796;BME280;57073;45.650;9.612;2024-02-15T03:00:27;100003.09;;;6.26;60.25
69796;BME280;57073;45.650;9.612;2024-02-15T03:05:27;100003.16;;;6.11;60.31
69796;BME280;57073;45.650;9.612;2024-02-15T03:10:29;99993.88;;;6.07;60.37
69796;BME280;57073;45.650;9.612;2024-02-15T03:15:29;99992.56;;;6.02;61.24
69796;BME280;57073;45.650;9.612;2024-02-15T03:20:30;99999.38;;;5.83;60.33
69796;BME280;57073;45.650;9.612;2024-02-15T03:25:30;99993.28;;;5.75;61.55
69796;BME280;57073;45.650;9.612;2024-02-15T03:30:32;99993.78;;;5.63;61.81
69796;BME280;57073;45.650;9.612;2024-02-15T03:35:34;100004.41;;;5.57;60.61
69796;BME280;57073;45.650;9.612;2024-02-15T03:40:34;100000.59;;;5.66;61.47
69796;BME280;57073;45.650;9.612;2024-02-15T03:45:35;99997.19;;;5.72;60.79
69796;BME280;57073;45.650;9.612;2024-02-15T03:50:35;100005.84;;;5.74;59.02
69796;BME280;57073;45.650;9.612;2024-02-15T03:55:35;100000.78;;;5.64;59.58
69796;BME280;57073;45.650;9.612;2024-02-15T04:00:36;99997.22;;;5.42;60.27
69796;BME280;57073;45.650;9.612;2024-02-15T04:05:37;100002.81;;;5.33;60.57
69796;BME280;57073;45.650;9.612;2024-02-15T04:10:38;99994.16;;;5.31;60.21
69796;BME280;57073;45.650;9.612;2024-02-15T04:15:38;100005.69;;;5.16;61.23
69796;BME280;57073;45.650;9.612;2024-02-15T04:20:39;100003.00;;;5.16;60.67
69796;BME280;57073;45.650;9.612;2024-02-15T04:25:44;100006.50;;;5.17;60.74
69796;BME280;57073;45.650;9.612;2024-02-15T04:30:51;100010.75;;;5.26;60.56
69796;BME280;57073;45.650;9.612;2024-02-15T04:35:51;100010.47;;;5.36;59.94
69796;BME280;57073;45.650;9.612;2024-02-15T04:40:51;100000.22;;;5.24;60.17
69796;BME280;57073;45.650;9.612;2024-02-15T04:45:53;100005.13;;;5.21;60.72
69796;BME280;57073;45.650;9.612;2024-02-15T04:50:54;100002.91;;;5.24;59.85
69796;BME280;57073;45.650;9.612;2024-02-15T04:55:55;100006.34;;;5.48;59.48
69796;BME280;57073;45.650;9.612;2024-02-15T05:00:55;99998.06;;;5.43;59.73
69796;BME280;57073;45.650;9.612;2024-02-15T05:05:59;99983.81;;;5.57;59.25
69796;BME280;57073;45.650;9.612;2024-02-15T05:11:00;99995.50;;;5.71;58.58
69796;BME280;57073;45.650;9.612;2024-02-15T05:16:00;99985.03;;;5.55;58.35
69796;BME280;57073;45.650;9.612;2024-02-15T05:21:01;100001.06;;;5.55;58.45
69796;BME280;57073;45.650;9.612;2024-02-15T05:26:03;100000.81;;;5.50;59.21
69796;BME280;57073;45.650;9.612;2024-02-15T05:31:19;100004.97;;;5.52;59.41
69796;BME280;57073;45.650;9.612;2024-02-15T05:36:21;99999.53;;;5.46;58.80
69796;BME280;57073;45.650;9.612;2024-02-15T05:41:22;100001.38;;;5.45;59.31
69796;BME280;57073;45.650;9.612;2024-02-15T05:46:23;100006.69;;;5.30;59.78
69796;BME280;57073;45.650;9.612;2024-02-15T05:51:25;100007.53;;;5.31;59.47
69796;BME280;57073;45.650;9.612;2024-02-15T05:56:25;100011.84;;;5.32;59.73
69796;BME280;57073;45.650;9.612;2024-02-15T06:01:26;100001.63;;;5.35;58.84
69796;BME280;57073;45.650;9.612;2024-02-15T06:06:26;100000.88;;;5.41;58.64
69796;BME280;57073;45.650;9.612;2024-02-15T06:11:26;99999.41;;;5.39;59.65
69796;BME280;57073;45.650;9.612;2024-02-15T06:16:27;99999.03;;;5.27;59.51
69796;BME280;57073;45.650;9.612;2024-02-15T06:21:27;99998.88;;;5.29;58.84
69796;BME280;57073;45.650;9.612;2024-02-15T06:26:29;100001.25;;;5.38;60.00
69796;BME280;57073;45.650;9.612;2024-02-15T06:31:31;99998.41;;;5.40;58.66
69796;BME280;57073;45.650;9.612;2024-02-15T06:36:53;99993.88;;;5.25;59.95
69796;BME280;57073;45.650;9.612;2024-02-15T06:42:14;99996.00;;;5.15;60.29
69796;BME280;57073;45.650;9.612;2024-02-15T06:47:19;100002.09;;;5.24;60.31
69796;BME280;57073;45.650;9.612;2024-02-15T06:52:20;100005.56;;;5.24;59.95
69796;BME280;57073;45.650;9.612;2024-02-15T06:57:21;100012.94;;;5.37;59.90
69796;BME280;57073;45.650;9.612;2024-02-15T07:02:21;100019.06;;;5.46;59.96
69796;BME280;57073;45.650;9.612;2024-02-15T07:07:22;100011.59;;;5.56;59.96
69796;BME280;57073;45.650;9.612;2024-02-15T07:12:23;100028.44;;;5.72;59.10
69796;BME280;57073;45.650;9.612;2024-02-15T07:17:23;100023.28;;;5.85;59.19
69796;BME280;57073;45.650;9.612;2024-02-15T07:22:24;100030.66;;;6.19;57.46
69796;BME280;57073;45.650;9.612;2024-02-15T07:27:24;100030.00;;;6.39;57.11
69796;BME280;57073;45.650;9.612;2024-02-15T07:32:26;100027.53;;;6.59;57.00
69796;BME280;57073;45.650;9.612;2024-02-15T07:37:27;100022.72;;;7.04;56.10
69796;BME280;57073;45.650;9.612;2024-02-15T07:42:29;100028.78;;;7.41;55.17
69796;BME280;57073;45.650;9.612;2024-02-15T07:47:29;100040.03;;;7.65;54.61
69796;BME280;57073;45.650;9.612;2024-02-15T07:52:30;100039.94;;;7.93;53.86
69796;BME280;57073;45.650;9.612;2024-02-15T07:57:30;100044.38;;;8.27;53.73
69796;BME280;57073;45.650;9.612;2024-02-15T08:02:31;100038.03;;;8.48;53.56
69796;BME280;57073;45.650;9.612;2024-02-15T08:07:32;100034.34;;;8.89;51.90
69796;BME280;57073;45.650;9.612;2024-02-15T08:12:35;100037.84;;;9.17;52.56
69796;BME280;57073;45.650;9.612;2024-02-15T08:17:36;100037.16;;;9.48;51.50
69796;BME280;57073;45.650;9.612;2024-02-15T08:22:37;100039.00;;;9.61;50.35
69796;BME280;57073;45.650;9.612;2024-02-15T08:27:42;100039.56;;;9.76;50.34
69796;BME280;57073;45.650;9.612;2024-02-15T08:32:44;100029.94;;;9.94;50.63
69796;BME280;57073;45.650;9.612;2024-02-15T08:37:45;100033.19;;;9.64;49.96
69796;BME280;57073;45.650;9.612;2024-02-15T08:42:47;100027.91;;;9.89;49.75
69796;BME280;57073;45.650;9.612;2024-02-15T08:47:47;100031.34;;;10.03;49.62
69796;BME280;57073;45.650;9.612;2024-02-15T08:52:50;100034.72;;;9.98;50.04
69796;BME280;57073;45.650;9.612;2024-02-15T08:57:50;100025.66;;;9.79;50.21
69796;BME280;57073;45.650;9.612;2024-02-15T09:02:50;100022.25;;;10.04;50.46
69796;BME280;57073;45.650;9.612;2024-02-15T09:07:51;100014.78;;;9.99;50.45
69796;BME280;57073;45.650;9.612;2024-02-15T09:12:51;100010.91;;;9.89;49.72
69796;BME280;57073;45.650;9.612;2024-02-15T09:17:52;100009.38;;;10.06;50.56
69796;BME280;57073;45.650;9.612;2024-02-15T09:22:55;100009.78;;;10.10;50.74
69796;BME280;57073;45.650;9.612;2024-02-15T09:27:56;100019.44;;;10.31;51.02
69796;BME280;57073;45.650;9.612;2024-02-15T09:32:56;100002.59;;;10.29;50.38
69796;BME280;57073;45.650;9.612;2024-02-15T09:37:56;100008.94;;;10.48;49.86
69796;BME280;57073;45.650;9.612;2024-02-15T09:42:57;100016.75;;;10.56;49.87
69796;BME280;57073;45.650;9.612;2024-02-15T09:47:59;100016.09;;;10.60;49.87
69796;BME280;57073;45.650;9.612;2024-02-15T09:53:04;100014.78;;;10.70;50.09
69796;BME280;57073;45.650;9.612;2024-02-15T09:58:07;100007.63;;;10.82;49.80
69796;BME280;57073;45.650;9.612;2024-02-15T10:03:10;100021.16;;;11.00;49.78
69796;BME280;57073;45.650;9.612;2024-02-15T10:08:12;100012.25;;;11.00;50.34
69796;BME280;57073;45.650;9.612;2024-02-15T10:13:13;100018.31;;;11.14;49.44
69796;BME280;57073;45.650;9.612;2024-02-15T10:18:13;100020.19;;;11.13;48.71
69796;BME280;57073;45.650;9.612;2024-02-15T10:23:14;100016.69;;;11.31;49.59
69796;BME280;57073;45.650;9.612;2024-02-15T10:28:21;100019.19;;;11.33;49.06
69796;BME280;57073;45.650;9.612;2024-02-15T10:33:27;100021.06;;;11.32;48.52
69796;BME280;57073;45.650;9.612;2024-02-15T10:38:31;100012.88;;;11.39;48.15
69796;BME280;57073;45.650;9.612;2024-02-15T10:43:35;100004.16;;;11.37;47.91
69796;BME280;57073;45.650;9.612;2024-02-15T10:48:37;100002.75;;;11.34;48.29
69796;BME280;57073;45.650;9.612;2024-02-15T10:53:43;100003.78;;;11.33;49.03
69796;BME280;57073;45.650;9.612;2024-02-15T10:58:50;99994.03;;;11.14;49.14
69796;BME280;57073;45.650;9.612;2024-02-15T11:04:00;99997.50;;;11.40;48.95
69796;BME280;57073;45.650;9.612;2024-02-15T11:09:01;99991.94;;;11.53;49.25
69796;BME280;57073;45.650;9.612;2024-02-15T11:14:28;99983.84;;;11.53;49.21
69796;BME280;57073;45.650;9.612;2024-02-15T11:24:32;99973.22;;;11.58;49.26
69796;BME280;57073;45.650;9.612;2024-02-15T11:29:51;99957.03;;;11.58;48.84
69796;BME280;57073;45.650;9.612;2024-02-15T11:35:02;99949.44;;;11.67;48.35
69796;BME280;57073;45.650;9.612;2024-02-15T11:40:10;99942.44;;;11.78;48.38
69796;BME280;57073;45.650;9.612;2024-02-15T11:45:13;99939.97;;;11.88;48.24
69796;BME280;57073;45.650;9.612;2024-02-15T11:50:16;99922.25;;;11.92;47.79
69796;BME280;57073;45.650;9.612;2024-02-15T11:55:19;99913.50;;;12.08;47.73
69796;BME280;57073;45.650;9.612;2024-02-15T12:00:26;99907.97;;;12.15;48.11
69796;BME280;57073;45.650;9.612;2024-02-15T12:05:45;99900.94;;;12.14;47.20
69796;BME280;57073;45.650;9.612;2024-02-15T12:11:06;99894.00;;;12.30;46.92
69796;BME280;57073;45.650;9.612;2024-02-15T12:16:24;99890.03;;;12.44;47.31
69796;BME280;57073;45.650;9.612;2024-02-15T12:21:43;99887.22;;;12.51;47.32
69796;BME280;57073;45.650;9.612;2024-02-15T12:26:44;99874.75;;;12.62;47.43
69796;BME280;57073;45.650;9.612;2024-02-15T12:31:46;99875.47;;;12.45;46.72
69796;BME280;57073;45.650;9.612;2024-02-15T12:36:47;99874.63;;;12.57;46.34
69796;BME280;57073;45.650;9.612;2024-02-15T12:41:49;99864.88;;;12.56;47.03
69796;BME280;57073;45.650;9.612;2024-02-15T12:46:54;99858.50;;;12.62;46.51
69796;BME280;57073;45.650;9.612;2024-02-15T12:57:35;99846.88;;;12.38;45.76
69796;BME280;57073;45.650;9.612;2024-02-15T13:02:39;99835.56;;;12.17;45.95
69796;BME280;57073;45.650;9.612;2024-02-15T13:07:39;99829.94;;;12.42;46.19
69796;BME280;57073;45.650;9.612;2024-02-15T13:12:44;99830.31;;;12.34;46.95
69796;BME280;57073;45.650;9.612;2024-02-15T13:17:45;99835.00;;;12.39;46.67
69796;BME280;57073;45.650;9.612;2024-02-15T13:22:47;99827.59;;;12.22;47.06
69796;BME280;57073;45.650;9.612;2024-02-15T13:27:50;99820.66;;;12.38;46.83
69796;BME280;57073;45.650;9.612;2024-02-15T13:32:51;99821.81;;;12.42;47.27
69796;BME280;57073;45.650;9.612;2024-02-15T13:37:53;99811.00;;;12.42;47.51
69796;BME280;57073;45.650;9.612;2024-02-15T13:42:55;99807.47;;;12.30;47.53
69796;BME280;57073;45.650;9.612;2024-02-15T13:47:59;99813.47;;;12.44;47.46
69796;BME280;57073;45.650;9.612;2024-02-15T13:53:03;99795.03;;;12.17;47.68
69796;BME280;57073;45.650;9.612;2024-02-15T13:58:04;99796.31;;;12.26;47.91
69796;BME280;57073;45.650;9.612;2024-02-15T14:03:04;99791.94;;;12.37;47.84
69796;BME280;57073;45.650;9.612;2024-02-15T14:08:06;99793.25;;;12.34;48.43
69796;BME280;57073;45.650;9.612;2024-02-15T14:13:09;99784.31;;;12.46;48.75
69796;BME280;57073;45.650;9.612;2024-02-15T14:18:12;99791.75;;;12.27;49.58
69796;BME280;57073;45.650;9.612;2024-02-15T14:23:18;99796.31;;;12.38;49.63
69796;BME280;57073;45.650;9.612;2024-02-15T14:28:18;99786.53;;;12.37;50.25
69796;BME280;57073;45.650;9.612;2024-02-15T14:33:19;99786.81;;;12.12;51.61
69796;BME280;57073;45.650;9.612;2024-02-15T14:38:19;99783.13;;;12.30;50.89
69796;BME280;57073;45.650;9.612;2024-02-15T14:43:22;99784.22;;;12.29;50.49
69796;BME280;57073;45.650;9.612;2024-02-15T14:48:23;99769.88;;;12.17;50.50
69796;BME280;57073;45.650;9.612;2024-02-15T14:53:24;99772.63;;;11.63;51.46
69796;BME280;57073;45.650;9.612;2024-02-15T14:58:24;99770.69;;;11.82;51.49
69796;BME280;57073;45.650;9.612;2024-02-15T15:03:25;99769.56;;;11.59;51.46
69796;BME280;57073;45.650;9.612;2024-02-15T15:08:25;99780.19;;;11.72;51.31
69796;BME280;57073;45.650;9.612;2024-02-15T15:13:44;99770.84;;;11.56;51.41
69796;BME280;57073;45.650;9.612;2024-02-15T15:18:45;99773.13;;;11.41;51.97
69796;BME280;57073;45.650;9.612;2024-02-15T15:23:46;99769.13;;;11.62;51.13
69796;BME280;57073;45.650;9.612;2024-02-15T15:28:46;99762.84;;;11.50;51.76
69796;BME280;57073;45.650;9.612;2024-02-15T15:33:48;99763.63;;;11.38;52.53
69796;BME280;57073;45.650;9.612;2024-02-15T15:38:52;99768.09;;;11.45;51.80
69796;BME280;57073;45.650;9.612;2024-02-15T15:43:53;99764.94;;;11.36;52.34
69796;BME280;57073;45.650;9.612;2024-02-15T15:48:53;99766.69;;;11.30;51.98
69796;BME280;57073;45.650;9.612;2024-02-15T15:53:53;99766.69;;;11.30;52.74
69796;BME280;57073;45.650;9.612;2024-02-15T15:58:55;99767.50;;;11.43;52.55
69796;BME280;57073;45.650;9.612;2024-02-15T16:03:57;99777.63;;;11.47;52.71
69796;BME280;57073;45.650;9.612;2024-02-15T16:08:58;99764.75;;;11.61;52.67
69796;BME280;57073;45.650;9.612;2024-02-15T16:13:58;99770.66;;;11.58;53.04
69796;BME280;57073;45.650;9.612;2024-02-15T16:18:58;99766.31;;;11.69;52.94
69796;BME280;57073;45.650;9.612;2024-02-15T16:24:00;99779.47;;;11.65;52.94
69796;BME280;57073;45.650;9.612;2024-02-15T16:29:00;99775.97;;;11.46;52.78
69796;BME280;57073;45.650;9.612;2024-02-15T16:34:00;99780.41;;;11.29;53.47
69796;BME280;57073;45.650;9.612;2024-02-15T16:39:01;99792.81;;;11.18;53.67
69796;BME280;57073;45.650;9.612;2024-02-15T16:44:01;99787.34;;;11.06;53.79
69796;BME280;57073;45.650;9.612;2024-02-15T16:49:02;99791.47;;;10.90;54.82
69796;BME280;57073;45.650;9.612;2024-02-15T16:54:02;99793.59;;;10.88;55.07
69796;BME280;57073;45.650;9.612;2024-02-15T16:59:05;99794.41;;;10.70;54.86
69796;BME280;57073;45.650;9.612;2024-02-15T17:04:05;99797.38;;;10.69;55.06
69796;BME280;57073;45.650;9.612;2024-02-15T17:09:08;99810.47;;;10.65;55.58
69796;BME280;57073;45.650;9.612;2024-02-15T17:14:09;99811.41;;;10.52;55.93
69796;BME280;57073;45.650;9.612;2024-02-15T17:19:09;99817.50;;;10.48;56.57
69796;BME280;57073;45.650;9.612;2024-02-15T17:24:10;99815.06;;;10.39;56.95
69796;BME280;57073;45.650;9.612;2024-02-15T17:29:11;99808.44;;;10.42;56.20
69796;BME280;57073;45.650;9.612;2024-02-15T17:34:12;99808.50;;;10.29;56.55
69796;BME280;57073;45.650;9.612;2024-02-15T17:39:12;99815.56;;;10.30;57.25
69796;BME280;57073;45.650;9.612;2024-02-15T17:44:14;99816.31;;;10.18;57.13
69796;BME280;57073;45.650;9.612;2024-02-15T17:49:15;99818.44;;;10.10;57.17
69796;BME280;57073;45.650;9.612;2024-02-15T17:54:15;99809.09;;;10.12;57.73
69796;BME280;57073;45.650;9.612;2024-02-15T17:59:15;99813.22;;;10.15;57.80
69796;BME280;57073;45.650;9.612;2024-02-15T18:04:16;99825.75;;;10.02;58.13
69796;BME280;57073;45.650;9.612;2024-02-15T18:09:17;99819.59;;;9.95;58.55
69796;BME280;57073;45.650;9.612;2024-02-15T18:14:17;99825.69;;;9.84;58.73
69796;BME280;57073;45.650;9.612;2024-02-15T18:19:17;99833.19;;;9.82;58.43
69796;BME280;57073;45.650;9.612;2024-02-15T18:24:19;99831.47;;;9.88;57.65
69796;BME280;57073;45.650;9.612;2024-02-15T18:29:21;99828.59;;;9.82;58.92
69796;BME280;57073;45.650;9.612;2024-02-15T18:34:21;99828.66;;;9.76;58.68
69796;BME280;57073;45.650;9.612;2024-02-15T18:39:22;99830.69;;;9.80;58.57
69796;BME280;57073;45.650;9.612;2024-02-15T18:44:24;99832.25;;;9.63;59.23
69796;BME280;57073;45.650;9.612;2024-02-15T18:49:25;99832.69;;;9.60;59.69
69796;BME280;57073;45.650;9.612;2024-02-15T18:54:26;99826.56;;;9.53;59.81
69796;BME280;57073;45.650;9.612;2024-02-15T18:59:26;99822.78;;;9.54;59.77
69796;BME280;57073;45.650;9.612;2024-02-15T19:04:29;99822.81;;;9.47;59.26
69796;BME280;57073;45.650;9.612;2024-02-15T19:09:29;99820.25;;;9.27;60.39
69796;BME280;57073;45.650;9.612;2024-02-15T19:14:31;99825.81;;;9.32;60.47
69796;BME280;57073;45.650;9.612;2024-02-15T19:19:32;99823.56;;;9.29;60.56
69796;BME280;57073;45.650;9.612;2024-02-15T19:24:33;99835.56;;;9.33;60.49
69796;BME280;57073;45.650;9.612;2024-02-15T19:29:34;99835.78;;;9.25;60.58
69796;BME280;57073;45.650;9.612;2024-02-15T19:34:35;99843.47;;;9.21;60.96
69796;BME280;57073;45.650;9.612;2024-02-15T19:39:36;99836.25;;;9.22;61.16
69796;BME280;57073;45.650;9.612;2024-02-15T19:44:39;99844.06;;;9.23;60.86
69796;BME280;57073;45.650;9.612;2024-02-15T19:49:41;99839.19;;;9.07;61.53
69796;BME280;57073;45.650;9.612;2024-02-15T19:54:41;99839.22;;;9.00;61.66
69796;BME280;57073;45.650;9.612;2024-02-15T19:59:42;99828.28;;;8.82;62.64
69796;BME280;57073;45.650;9.612;2024-02-15T20:04:43;99826.44;;;8.82;62.26
69796;BME280;57073;45.650;9.612;2024-02-15T20:09:43;99823.97;;;8.74;63.02
69796;BME280;57073;45.650;9.612;2024-02-15T20:14:46;99819.44;;;8.61;62.90
69796;BME280;57073;45.650;9.612;2024-02-15T20:19:46;99825.25;;;8.58;63.30
69796;BME280;57073;45.650;9.612;2024-02-15T20:24:48;99823.63;;;8.44;64.00
69796;BME280;57073;45.650;9.612;2024-02-15T20:29:48;99819.09;;;8.38;63.92
69796;BME280;57073;45.650;9.612;2024-02-15T20:34:52;99820.72;;;8.45;63.73
69796;BME280;57073;45.650;9.612;2024-02-15T20:39:52;99827.16;;;8.44;63.47
69796;BME280;57073;45.650;9.612;2024-02-15T20:44:53;99827.34;;;8.36;63.21
69796;BME280;57073;45.650;9.612;2024-02-15T20:49:54;99823.03;;;8.28;63.34
69796;BME280;57073;45.650;9.612;2024-02-15T20:54:54;99818.69;;;8.27;63.31
69796;BME280;57073;45.650;9.612;2024-02-15T20:59:55;99818.91;;;8.19;63.38
69796;BME280;57073;45.650;9.612;2024-02-15T21:04:55;99824.69;;;8.16;63.27
69796;BME280;57073;45.650;9.612;2024-02-15T21:09:55;99822.84;;;8.03;63.57
69796;BME280;57073;45.650;9.612;2024-02-15T21:14:57;99834.00;;;8.07;63.97
69796;BME280;57073;45.650;9.612;2024-02-15T21:19:57;99831.53;;;8.19;62.49
69796;BME280;57073;45.650;9.612;2024-02-15T21:24:57;99831.13;;;8.15;62.83
69796;BME280;57073;45.650;9.612;2024-02-15T21:29:58;99830.28;;;8.01;62.46
69796;BME280;57073;45.650;9.612;2024-02-15T21:35:02;99824.28;;;7.92;63.19
69796;BME280;57073;45.650;9.612;2024-02-15T21:40:03;99827.41;;;8.03;62.98
69796;BME280;57073;45.650;9.612;2024-02-15T21:45:06;99807.13;;;8.00;63.25
69796;BME280;57073;45.650;9.612;2024-02-15T21:50:11;99807.13;;;8.00;63.38
69796;BME280;57073;45.650;9.612;2024-02-15T21:55:12;99810.03;;;8.12;62.73
69796;BME280;57073;45.650;9.612;2024-02-15T22:00:12;99813.94;;;8.16;63.16
69796;BME280;57073;45.650;9.612;2024-02-15T22:05:13;99817.25;;;8.18;62.56
69796;BME280;57073;45.650;9.612;2024-02-15T22:10:13;99813.13;;;8.09;62.89
69796;BME280;57073;45.650;9.612;2024-02-15T22:15:13;99807.97;;;8.01;63.54
69796;BME280;57073;45.650;9.612;2024-02-15T22:20:14;99809.00;;;8.06;63.20
69796;BME280;57073;45.650;9.612;2024-02-15T22:25:14;99807.97;;;8.14;62.85
69796;BME280;57073;45.650;9.612;2024-02-15T22:30:15;99805.28;;;8.14;63.24
69796;BME280;57073;45.650;9.612;2024-02-15T22:35:17;99806.94;;;8.15;62.23
69796;BME280;57073;45.650;9.612;2024-02-15T22:40:18;99803.44;;;7.94;63.24
69796;BME280;57073;45.650;9.612;2024-02-15T22:45:18;99796.41;;;8.00;62.93
69796;BME280;57073;45.650;9.612;2024-02-15T22:50:19;99795.81;;;7.91;63.08
69796;BME280;57073;45.650;9.612;2024-02-15T22:55:19;99794.34;;;8.02;62.75
69796;BME280;57073;45.650;9.612;2024-02-15T23:00:20;99792.28;;;7.91;63.58
69796;BME280;57073;45.650;9.612;2024-02-15T23:05:20;99792.28;;;7.98;63.25
69796;BME280;57073;45.650;9.612;2024-02-15T23:10:22;99798.47;;;7.98;63.31
69796;BME280;57073;45.650;9.612;2024-02-15T23:15:22;99790.22;;;8.00;63.10
69796;BME280;57073;45.650;9.612;2024-02-15T23:20:24;99792.47;;;7.96;63.34
69796;BME280;57073;45.650;9.612;2024-02-15T23:25:25;99785.06;;;7.91;63.10
69796;BME280;57073;45.650;9.612;2024-02-15T23:30:25;99791.44;;;7.90;63.15
69796;BME280;57073;45.650;9.612;2024-02-15T23:35:26;99798.06;;;7.81;63.56
69796;BME280;57073;45.650;9.612;2024-02-15T23:40:32;99791.84;;;7.87;63.04
69796;BME280;57073;45.650;9.612;2024-02-15T23:45:32;99798.66;;;7.97;62.62
69796;BME280;57073;45.650;9.612;2024-02-15T23:50:35;99788.75;;;7.90;62.35
69796;BME280;57073;45.650;9.612;2024-02-15T23:55:35;99787.75;;;7.85;63.07
